Morganville, Washington
Current Conditions -  °F | °C
As of 7:53 AM on Friday 19 Dec 2014 (Local Time) from KRNT Reporting Station
Light Rain Light Rain  
Wind Chill: 46°   Ceiling: 4100
Heat Index: 46°   Visibility: 10mi
Dew Point: 44°   Wind: 3mph
Humidity: 93%   Direction: 130°SE
Pressure: 29.88"   Gusts: NA
Location:  47.3203°N, 121.982°W
Report Text: KRNT 191553Z 13003KT 10SM -RA OVC041 08/07 A2988 RMK AO2 RAB47 SLP124 P0000 T00780067
Loading
Personal Weather Stations






























Interactive Weather Map New forecast layout! Learn more

10-Day Weather Forecast

Advertisements
Track Severe Weather on mobile